sensor_id;sensor_type;location;lat;lon;timestamp;pressure;altitude;pressure_sealevel;temperature;humidity
56142;BME280;42018;48.588;10.836;2023-02-23T00:02:35;96473.56;;;6.65;69.09
56142;BME280;42018;48.588;10.836;2023-02-23T00:05:21;96475.34;;;6.38;70.67
56142;BME280;42018;48.588;10.836;2023-02-23T00:08:07;96476.25;;;6.27;71.19
56142;BME280;42018;48.588;10.836;2023-02-23T00:10:53;96480.56;;;5.77;72.09
56142;BME280;42018;48.588;10.836;2023-02-23T00:13:43;96484.44;;;5.58;72.73
56142;BME280;42018;48.588;10.836;2023-02-23T00:16:34;96483.88;;;5.72;72.91
56142;BME280;42018;48.588;10.836;2023-02-23T00:19:19;96483.03;;;5.50;74.09
56142;BME280;42018;48.588;10.836;2023-02-23T00:22:04;96482.44;;;5.82;73.02
56142;BME280;42018;48.588;10.836;2023-02-23T00:24:50;96487.75;;;5.87;72.91
56142;BME280;42018;48.588;10.836;2023-02-23T00:27:36;96482.41;;;6.15;72.09
56142;BME280;42018;48.588;10.836;2023-02-23T00:30:28;96483.31;;;6.04;72.17
56142;BME280;42018;48.588;10.836;2023-02-23T00:33:13;96483.72;;;6.13;72.43
56142;BME280;42018;48.588;10.836;2023-02-23T00:36:07;96487.56;;;6.27;71.31
56142;BME280;42018;48.588;10.836;2023-02-23T00:38:54;96480.00;;;6.31;71.93
56142;BME280;42018;48.588;10.836;2023-02-23T00:41:40;96481.97;;;6.40;71.37
56142;BME280;42018;48.588;10.836;2023-02-23T00:44:26;96479.13;;;6.47;71.31
56142;BME280;42018;48.588;10.836;2023-02-23T00:47:11;96483.41;;;6.53;70.75
56142;BME280;42018;48.588;10.836;2023-02-23T00:49:57;96487.88;;;6.75;70.67
56142;BME280;42018;48.588;10.836;2023-02-23T00:52:43;96486.66;;;6.60;71.05
56142;BME280;42018;48.588;10.836;2023-02-23T00:55:28;96480.34;;;6.61;71.11
56142;BME280;42018;48.588;10.836;2023-02-23T00:58:14;96484.50;;;6.57;71.44
56142;BME280;42018;48.588;10.836;2023-02-23T01:00:59;96479.22;;;6.79;70.55
56142;BME280;42018;48.588;10.836;2023-02-23T01:03:45;96479.13;;;6.69;71.18
56142;BME280;42018;48.588;10.836;2023-02-23T01:06:33;96486.31;;;6.79;70.45
56142;BME280;42018;48.588;10.836;2023-02-23T01:09:21;96483.91;;;6.50;71.39
56142;BME280;42018;48.588;10.836;2023-02-23T01:12:12;96480.03;;;6.80;70.28
56142;BME280;42018;48.588;10.836;2023-02-23T01:14:57;96483.97;;;6.77;70.43
56142;BME280;42018;48.588;10.836;2023-02-23T01:17:43;96473.94;;;7.01;69.63
56142;BME280;42018;48.588;10.836;2023-02-23T01:20:29;96470.91;;;6.87;69.90
56142;BME280;42018;48.588;10.836;2023-02-23T01:23:14;96475.44;;;6.97;69.79
56142;BME280;42018;48.588;10.836;2023-02-23T01:26:00;96476.16;;;6.87;69.88
56142;BME280;42018;48.588;10.836;2023-02-23T01:28:53;96481.78;;;6.96;69.88
56142;BME280;42018;48.588;10.836;2023-02-23T01:31:41;96479.22;;;6.79;70.41
56142;BME280;42018;48.588;10.836;2023-02-23T01:34:27;96476.28;;;6.76;71.08
56142;BME280;42018;48.588;10.836;2023-02-23T01:37:12;96470.00;;;6.77;71.19
56142;BME280;42018;48.588;10.836;2023-02-23T01:39:58;96468.59;;;6.69;70.67
56142;BME280;42018;48.588;10.836;2023-02-23T01:42:45;96457.09;;;7.02;70.04
56142;BME280;42018;48.588;10.836;2023-02-23T01:45:34;96463.50;;;6.84;70.32
56142;BME280;42018;48.588;10.836;2023-02-23T01:48:31;96465.44;;;6.94;70.23
56142;BME280;42018;48.588;10.836;2023-02-23T01:51:20;96455.00;;;6.77;71.19
56142;BME280;42018;48.588;10.836;2023-02-23T01:54:11;96463.22;;;6.86;70.92
56142;BME280;42018;48.588;10.836;2023-02-23T01:57:01;96460.56;;;6.81;71.12
56142;BME280;42018;48.588;10.836;2023-02-23T01:59:48;96459.97;;;6.74;71.93
56142;BME280;42018;48.588;10.836;2023-02-23T02:02:34;96460.16;;;6.94;71.28
56142;BME280;42018;48.588;10.836;2023-02-23T02:05:20;96455.59;;;6.84;71.01
56142;BME280;42018;48.588;10.836;2023-02-23T02:08:07;96454.69;;;7.01;71.01
56142;BME280;42018;48.588;10.836;2023-02-23T02:10:54;96456.97;;;6.92;71.37
56142;BME280;42018;48.588;10.836;2023-02-23T02:13:41;96461.81;;;6.51;72.17
56142;BME280;42018;48.588;10.836;2023-02-23T02:29:48;96462.63;;;6.30;74.17
56142;BME280;42018;48.588;10.836;2023-02-23T02:41:47;96455.47;;;6.08;77.07
56142;BME280;42018;48.588;10.836;2023-02-23T02:44:40;96453.59;;;6.26;75.75
56142;BME280;42018;48.588;10.836;2023-02-23T02:47:34;96457.22;;;6.19;76.75
56142;BME280;42018;48.588;10.836;2023-02-23T02:50:29;96444.41;;;6.50;74.90
56142;BME280;42018;48.588;10.836;2023-02-23T02:53:23;96453.38;;;6.49;74.47
56142;BME280;42018;48.588;10.836;2023-02-23T02:56:12;96447.63;;;6.52;74.92
56142;BME280;42018;48.588;10.836;2023-02-23T02:59:01;96445.41;;;6.22;76.78
56142;BME280;42018;48.588;10.836;2023-02-23T03:01:47;96446.16;;;6.17;77.25
56142;BME280;42018;48.588;10.836;2023-02-23T03:04:51;96441.78;;;6.50;76.00
56142;BME280;42018;48.588;10.836;2023-02-23T03:11:13;96434.81;;;6.61;75.04
56142;BME280;42018;48.588;10.836;2023-02-23T03:14:37;96442.97;;;6.59;75.01
56142;BME280;42018;48.588;10.836;2023-02-23T03:17:45;96439.34;;;6.43;75.63
56142;BME280;42018;48.588;10.836;2023-02-23T03:20:53;96443.59;;;6.44;75.62
56142;BME280;42018;48.588;10.836;2023-02-23T03:24:33;96437.69;;;6.59;75.01
56142;BME280;42018;48.588;10.836;2023-02-23T03:31:01;96449.03;;;6.16;77.74
56142;BME280;42018;48.588;10.836;2023-02-23T03:34:27;96444.88;;;6.20;77.87
56142;BME280;42018;48.588;10.836;2023-02-23T03:37:40;96454.72;;;6.52;76.71
56142;BME280;42018;48.588;10.836;2023-02-23T03:40:48;96442.84;;;6.49;75.86
56142;BME280;42018;48.588;10.836;2023-02-23T03:44:03;96443.75;;;6.60;75.99
56142;BME280;42018;48.588;10.836;2023-02-23T03:47:09;96449.56;;;6.40;76.40
56142;BME280;42018;48.588;10.836;2023-02-23T03:50:24;96455.56;;;6.57;76.17
56142;BME280;42018;48.588;10.836;2023-02-23T03:53:34;96450.00;;;6.32;77.37
56142;BME280;42018;48.588;10.836;2023-02-23T03:56:45;96457.47;;;6.40;76.72
56142;BME280;42018;48.588;10.836;2023-02-23T03:59:57;96453.72;;;6.14;78.08
56142;BME280;42018;48.588;10.836;2023-02-23T04:03:05;96454.47;;;6.09;78.25
56142;BME280;42018;48.588;10.836;2023-02-23T04:06:13;96448.72;;;6.12;78.04
56142;BME280;42018;48.588;10.836;2023-02-23T04:09:17;96456.78;;;6.06;78.40
56142;BME280;42018;48.588;10.836;2023-02-23T04:12:44;96461.09;;;6.34;77.18
56142;BME280;42018;48.588;10.836;2023-02-23T04:15:56;96453.25;;;6.17;76.91
56142;BME280;42018;48.588;10.836;2023-02-23T04:18:43;96456.84;;;6.11;77.63
56142;BME280;42018;48.588;10.836;2023-02-23T04:21:28;96458.50;;;6.39;76.75
56142;BME280;42018;48.588;10.836;2023-02-23T04:24:13;96457.53;;;6.23;77.12
56142;BME280;42018;48.588;10.836;2023-02-23T04:26:59;96463.38;;;6.08;77.51
56142;BME280;42018;48.588;10.836;2023-02-23T04:29:45;96467.38;;;5.94;78.36
56142;BME280;42018;48.588;10.836;2023-02-23T04:32:31;96465.13;;;6.19;78.04
56142;BME280;42018;48.588;10.836;2023-02-23T04:35:17;96472.78;;;6.04;78.83
56142;BME280;42018;48.588;10.836;2023-02-23T04:38:03;96471.69;;;6.00;78.70
56142;BME280;42018;48.588;10.836;2023-02-23T04:40:48;96476.34;;;6.15;78.92
56142;BME280;42018;48.588;10.836;2023-02-23T04:43:34;96469.66;;;6.24;78.26
56142;BME280;42018;48.588;10.836;2023-02-23T04:46:19;96473.25;;;6.18;77.80
56142;BME280;42018;48.588;10.836;2023-02-23T04:49:04;96478.50;;;6.18;77.96
56142;BME280;42018;48.588;10.836;2023-02-23T04:51:50;96471.63;;;6.34;77.42
56142;BME280;42018;48.588;10.836;2023-02-23T04:54:39;96463.44;;;6.57;76.36
56142;BME280;42018;48.588;10.836;2023-02-23T04:57:24;96467.88;;;6.52;76.90
56142;BME280;42018;48.588;10.836;2023-02-23T05:00:11;96468.19;;;6.33;77.32
56142;BME280;42018;48.588;10.836;2023-02-23T05:02:56;96470.88;;;6.16;79.11
56142;BME280;42018;48.588;10.836;2023-02-23T05:05:42;96468.38;;;6.27;78.37
56142;BME280;42018;48.588;10.836;2023-02-23T05:08:28;96460.16;;;6.67;76.51
56142;BME280;42018;48.588;10.836;2023-02-23T05:11:13;96454.31;;;6.65;75.19
56142;BME280;42018;48.588;10.836;2023-02-23T05:13:58;96453.63;;;6.75;75.01
56142;BME280;42018;48.588;10.836;2023-02-23T05:16:44;96456.97;;;6.92;74.35
56142;BME280;42018;48.588;10.836;2023-02-23T05:19:29;96455.78;;;6.78;74.53
56142;BME280;42018;48.588;10.836;2023-02-23T05:22:15;96458.06;;;6.96;73.95
56142;BME280;42018;48.588;10.836;2023-02-23T05:25:00;96454.97;;;7.04;73.75
56142;BME280;42018;48.588;10.836;2023-02-23T05:27:45;96452.22;;;6.89;74.27
56142;BME280;42018;48.588;10.836;2023-02-23T05:30:31;96460.28;;;6.82;74.32
56142;BME280;42018;48.588;10.836;2023-02-23T05:33:17;96456.59;;;7.05;74.14
56142;BME280;42018;48.588;10.836;2023-02-23T05:36:04;96462.06;;;6.99;74.25
56142;BME280;42018;48.588;10.836;2023-02-23T05:38:49;96460.53;;;7.08;74.32
56142;BME280;42018;48.588;10.836;2023-02-23T05:41:35;96467.03;;;6.95;74.67
56142;BME280;42018;48.588;10.836;2023-02-23T05:44:20;96458.72;;;7.08;74.55
56142;BME280;42018;48.588;10.836;2023-02-23T05:47:05;96460.16;;;7.21;73.90
56142;BME280;42018;48.588;10.836;2023-02-23T05:49:51;96460.81;;;7.06;74.03
56142;BME280;42018;48.588;10.836;2023-02-23T05:52:38;96462.88;;;7.04;74.42
56142;BME280;42018;48.588;10.836;2023-02-23T05:55:25;96459.84;;;7.17;74.46
56142;BME280;42018;48.588;10.836;2023-02-23T05:58:11;96466.47;;;7.20;73.88
56142;BME280;42018;48.588;10.836;2023-02-23T06:00:56;96471.19;;;7.18;73.80
56142;BME280;42018;48.588;10.836;2023-02-23T06:03:43;96472.56;;;7.26;73.62
56142;BME280;42018;48.588;10.836;2023-02-23T06:06:28;96476.06;;;7.04;74.81
56142;BME280;42018;48.588;10.836;2023-02-23T06:09:14;96466.69;;;7.18;74.31
56142;BME280;42018;48.588;10.836;2023-02-23T06:11:59;96469.59;;;7.17;73.55
56142;BME280;42018;48.588;10.836;2023-02-23T06:14:45;96473.41;;;7.04;74.52
56142;BME280;42018;48.588;10.836;2023-02-23T06:17:30;96476.72;;;7.16;74.70
56142;BME280;42018;48.588;10.836;2023-02-23T06:20:16;96475.56;;;7.07;74.74
56142;BME280;42018;48.588;10.836;2023-02-23T06:23:02;96470.06;;;7.09;73.95
56142;BME280;42018;48.588;10.836;2023-02-23T06:25:48;96476.31;;;7.03;75.34
56142;BME280;42018;48.588;10.836;2023-02-23T06:28:33;96484.50;;;7.06;74.76
56142;BME280;42018;48.588;10.836;2023-02-23T06:31:19;96478.19;;;7.07;74.86
56142;BME280;42018;48.588;10.836;2023-02-23T06:34:04;96488.09;;;6.95;75.28
56142;BME280;42018;48.588;10.836;2023-02-23T06:36:49;96490.66;;;7.17;74.61
56142;BME280;42018;48.588;10.836;2023-02-23T06:39:35;96484.34;;;7.18;74.92
56142;BME280;42018;48.588;10.836;2023-02-23T06:42:20;96492.72;;;7.10;75.57
56142;BME280;42018;48.588;10.836;2023-02-23T06:45:06;96498.44;;;7.02;76.64
56142;BME280;42018;48.588;10.836;2023-02-23T06:47:52;96497.72;;;7.11;75.98
56142;BME280;42018;48.588;10.836;2023-02-23T06:50:37;96504.84;;;7.11;76.47
56142;BME280;42018;48.588;10.836;2023-02-23T06:53:23;96511.94;;;6.83;77.70
56142;BME280;42018;48.588;10.836;2023-02-23T06:56:09;96513.22;;;6.81;78.26
56142;BME280;42018;48.588;10.836;2023-02-23T06:58:54;96517.69;;;6.80;78.47
56142;BME280;42018;48.588;10.836;2023-02-23T07:01:40;96519.88;;;6.88;78.30
56142;BME280;42018;48.588;10.836;2023-02-23T07:04:28;96524.53;;;6.81;78.15
56142;BME280;42018;48.588;10.836;2023-02-23T07:07:14;96519.81;;;7.05;76.73
56142;BME280;42018;48.588;10.836;2023-02-23T07:09:59;96519.53;;;7.07;76.75
56142;BME280;42018;48.588;10.836;2023-02-23T07:12:44;96523.38;;;7.21;76.70
56142;BME280;42018;48.588;10.836;2023-02-23T07:15:30;96519.81;;;7.05;77.67
56142;BME280;42018;48.588;10.836;2023-02-23T07:18:15;96515.94;;;7.13;78.13
56142;BME280;42018;48.588;10.836;2023-02-23T07:21:00;96523.75;;;7.08;77.71
56142;BME280;42018;48.588;10.836;2023-02-23T07:23:46;96519.69;;;7.22;77.77
56142;BME280;42018;48.588;10.836;2023-02-23T07:26:34;96524.63;;;7.13;78.38
56142;BME280;42018;48.588;10.836;2023-02-23T07:29:20;96530.59;;;7.31;78.29
56142;BME280;42018;48.588;10.836;2023-02-23T07:32:08;96524.66;;;7.18;79.45
56142;BME280;42018;48.588;10.836;2023-02-23T07:34:53;96522.03;;;7.18;79.53
56142;BME280;42018;48.588;10.836;2023-02-23T07:37:38;96521.59;;;7.27;79.24
56142;BME280;42018;48.588;10.836;2023-02-23T07:40:24;96521.22;;;7.40;79.00
56142;BME280;42018;48.588;10.836;2023-02-23T07:43:10;96526.53;;;7.50;79.63
56142;BME280;42018;48.588;10.836;2023-02-23T07:45:59;96529.75;;;7.57;79.55
56142;BME280;42018;48.588;10.836;2023-02-23T07:48:45;96533.13;;;7.48;79.74
56142;BME280;42018;48.588;10.836;2023-02-23T07:51:30;96532.56;;;7.18;82.83
56142;BME280;42018;48.588;10.836;2023-02-23T07:54:15;96535.81;;;6.77;84.65
56142;BME280;42018;48.588;10.836;2023-02-23T07:57:01;96535.34;;;6.80;85.76
56142;BME280;42018;48.588;10.836;2023-02-23T07:59:47;96542.97;;;7.03;85.37
56142;BME280;42018;48.588;10.836;2023-02-23T08:02:32;96534.09;;;7.14;85.42
56142;BME280;42018;48.588;10.836;2023-02-23T08:05:18;96531.75;;;7.40;84.04
56142;BME280;42018;48.588;10.836;2023-02-23T08:08:04;96535.59;;;7.59;83.76
56142;BME280;42018;48.588;10.836;2023-02-23T08:10:49;96524.94;;;7.76;82.94
56142;BME280;42018;48.588;10.836;2023-02-23T08:13:35;96531.78;;;7.77;82.94
56142;BME280;42018;48.588;10.836;2023-02-23T08:16:21;96528.09;;;7.78;83.90
56142;BME280;42018;48.588;10.836;2023-02-23T08:19:06;96532.94;;;7.91;83.96
56142;BME280;42018;48.588;10.836;2023-02-23T08:21:52;96528.03;;;8.05;83.89
56142;BME280;42018;48.588;10.836;2023-02-23T08:24:37;96530.09;;;7.98;84.60
56142;BME280;42018;48.588;10.836;2023-02-23T08:27:23;96527.75;;;8.07;84.33
56142;BME280;42018;48.588;10.836;2023-02-23T08:30:08;96532.59;;;8.20;83.89
56142;BME280;42018;48.588;10.836;2023-02-23T08:32:54;96531.53;;;8.16;84.84
56142;BME280;42018;48.588;10.836;2023-02-23T08:35:42;96529.41;;;8.18;85.20
56142;BME280;42018;48.588;10.836;2023-02-23T08:38:28;96536.25;;;8.14;85.64
56142;BME280;42018;48.588;10.836;2023-02-23T08:41:14;96528.59;;;8.12;86.14
56142;BME280;42018;48.588;10.836;2023-02-23T08:43:59;96526.75;;;8.55;84.00
56142;BME280;42018;48.588;10.836;2023-02-23T08:46:45;96527.31;;;8.57;84.43
56142;BME280;42018;48.588;10.836;2023-02-23T08:49:30;96534.47;;;8.67;84.77
56142;BME280;42018;48.588;10.836;2023-02-23T08:52:17;96526.78;;;8.60;85.72
56142;BME280;42018;48.588;10.836;2023-02-23T08:55:03;96526.34;;;8.89;84.60
56142;BME280;42018;48.588;10.836;2023-02-23T08:57:48;96527.47;;;9.08;83.93
56142;BME280;42018;48.588;10.836;2023-02-23T09:00:34;96523.81;;;9.25;83.45
56142;BME280;42018;48.588;10.836;2023-02-23T09:03:20;96522.00;;;9.41;83.17
56142;BME280;42018;48.588;10.836;2023-02-23T09:06:09;96527.53;;;9.44;83.08
56142;BME280;42018;48.588;10.836;2023-02-23T09:08:55;96530.72;;;9.51;84.57
56142;BME280;42018;48.588;10.836;2023-02-23T09:11:41;96526.50;;;9.61;85.94
56142;BME280;42018;48.588;10.836;2023-02-23T09:14:26;96532.31;;;9.57;87.27
56142;BME280;42018;48.588;10.836;2023-02-23T09:17:12;96527.25;;;9.30;88.21
56142;BME280;42018;48.588;10.836;2023-02-23T09:19:57;96536.03;;;9.46;87.96
56142;BME280;42018;48.588;10.836;2023-02-23T09:22:43;96529.16;;;9.50;87.47
56142;BME280;42018;48.588;10.836;2023-02-23T09:25:40;96532.00;;;9.23;88.27
56142;BME280;42018;48.588;10.836;2023-02-23T09:28:27;96529.91;;;9.41;88.94
56142;BME280;42018;48.588;10.836;2023-02-23T09:31:18;96532.03;;;9.49;87.95
56142;BME280;42018;48.588;10.836;2023-02-23T09:34:04;96536.53;;;9.64;87.22
56142;BME280;42018;48.588;10.836;2023-02-23T09:36:49;96537.06;;;9.71;87.20
56142;BME280;42018;48.588;10.836;2023-02-23T09:39:36;96536.03;;;9.77;86.39
56142;BME280;42018;48.588;10.836;2023-02-23T09:42:46;96544.50;;;9.53;86.23
56142;BME280;42018;48.588;10.836;2023-02-23T09:45:38;96541.59;;;9.65;86.33
56142;BME280;42018;48.588;10.836;2023-02-23T09:48:26;96545.78;;;9.41;87.67
56142;BME280;42018;48.588;10.836;2023-02-23T09:51:16;96545.78;;;9.56;87.35
56142;BME280;42018;48.588;10.836;2023-02-23T09:54:02;96547.06;;;9.28;88.56
56142;BME280;42018;48.588;10.836;2023-02-23T09:56:48;96540.25;;;9.47;88.38
56142;BME280;42018;48.588;10.836;2023-02-23T09:59:35;96543.19;;;9.71;87.28
56142;BME280;42018;48.588;10.836;2023-02-23T10:05:06;96547.91;;;9.49;87.14
56142;BME280;42018;48.588;10.836;2023-02-23T10:07:54;96543.94;;;9.56;86.33
56142;BME280;42018;48.588;10.836;2023-02-23T10:10:45;96540.75;;;9.49;86.93
56142;BME280;42018;48.588;10.836;2023-02-23T10:13:54;96548.41;;;9.35;87.69
56142;BME280;42018;48.588;10.836;2023-02-23T10:19:47;96537.34;;;9.44;86.91
56142;BME280;42018;48.588;10.836;2023-02-23T10:22:34;96550.00;;;9.42;87.11
56142;BME280;42018;48.588;10.836;2023-02-23T10:25:25;96552.94;;;9.50;86.62
56142;BME280;42018;48.588;10.836;2023-02-23T10:28:16;96558.75;;;9.37;87.66
56142;BME280;42018;48.588;10.836;2023-02-23T10:31:08;96554.50;;;9.41;86.92
56142;BME280;42018;48.588;10.836;2023-02-23T10:34:03;96561.91;;;9.34;87.66
56142;BME280;42018;48.588;10.836;2023-02-23T10:36:50;96560.31;;;9.38;87.72
56142;BME280;42018;48.588;10.836;2023-02-23T10:39:37;96560.31;;;9.38;87.64
56142;BME280;42018;48.588;10.836;2023-02-23T10:42:24;96556.63;;;9.49;87.81
56142;BME280;42018;48.588;10.836;2023-02-23T10:45:17;96559.84;;;9.62;86.66
56142;BME280;42018;48.588;10.836;2023-02-23T10:48:12;96556.66;;;9.54;88.37
56142;BME280;42018;48.588;10.836;2023-02-23T10:51:00;96550.59;;;9.64;87.82
56142;BME280;42018;48.588;10.836;2023-02-23T10:53:46;96551.09;;;9.56;88.51
56142;BME280;42018;48.588;10.836;2023-02-23T10:56:32;96547.66;;;9.55;88.86
56142;BME280;42018;48.588;10.836;2023-02-23T10:59:27;96548.72;;;9.85;87.23
56142;BME280;42018;48.588;10.836;2023-02-23T11:02:14;96545.00;;;10.06;85.81
56142;BME280;42018;48.588;10.836;2023-02-23T11:04:59;96539.44;;;10.34;85.09
56142;BME280;42018;48.588;10.836;2023-02-23T11:07:45;96539.44;;;10.34;83.61
56142;BME280;42018;48.588;10.836;2023-02-23T11:10:30;96542.88;;;10.44;81.99
56142;BME280;42018;48.588;10.836;2023-02-23T11:13:22;96535.69;;;10.55;81.04
56142;BME280;42018;48.588;10.836;2023-02-23T11:18:59;96523.97;;;10.71;79.82
56142;BME280;42018;48.588;10.836;2023-02-23T11:21:48;96531.16;;;10.55;81.22
56142;BME280;42018;48.588;10.836;2023-02-23T11:24:35;96529.59;;;10.54;80.06
56142;BME280;42018;48.588;10.836;2023-02-23T11:27:24;96522.19;;;10.57;81.06
56142;BME280;42018;48.588;10.836;2023-02-23T11:30:11;96514.78;;;10.48;80.25
56142;BME280;42018;48.588;10.836;2023-02-23T11:32:58;96508.63;;;10.63;80.78
56142;BME280;42018;48.588;10.836;2023-02-23T11:35:57;96510.41;;;10.83;78.62
56142;BME280;42018;48.588;10.836;2023-02-23T11:38:44;96511.00;;;10.65;79.90
56142;BME280;42018;48.588;10.836;2023-02-23T11:41:30;96510.41;;;10.83;79.17
56142;BME280;42018;48.588;10.836;2023-02-23T11:44:21;96503.97;;;10.99;78.50
56142;BME280;42018;48.588;10.836;2023-02-23T11:47:15;96499.78;;;10.88;77.43
56142;BME280;42018;48.588;10.836;2023-02-23T11:50:02;96501.03;;;11.01;78.86
56142;BME280;42018;48.588;10.836;2023-02-23T11:52:52;96495.78;;;10.91;78.47
56142;BME280;42018;48.588;10.836;2023-02-23T11:55:39;96491.38;;;11.20;76.50
56142;BME280;42018;48.588;10.836;2023-02-23T12:01:33;96491.94;;;11.57;76.70
56142;BME280;42018;48.588;10.836;2023-02-23T12:04:24;96487.91;;;11.64;74.59
56142;BME280;42018;48.588;10.836;2023-02-23T12:07:24;96483.84;;;11.72;74.10
56142;BME280;42018;48.588;10.836;2023-02-23T12:10:27;96489.63;;;11.79;73.04
56142;BME280;42018;48.588;10.836;2023-02-23T12:16:24;96478.63;;;11.96;73.62
56142;BME280;42018;48.588;10.836;2023-02-23T12:19:18;96482.75;;;11.78;72.94
56142;BME280;42018;48.588;10.836;2023-02-23T12:22:10;96473.22;;;11.72;74.45
56142;BME280;42018;48.588;10.836;2023-02-23T12:27:44;96469.81;;;12.01;73.50
56142;BME280;42018;48.588;10.836;2023-02-23T12:33:24;96465.25;;;12.06;72.68
56142;BME280;42018;48.588;10.836;2023-02-23T12:37:00;96456.66;;;12.14;70.72
56142;BME280;42018;48.588;10.836;2023-02-23T12:45:04;96458.19;;;11.96;72.14
56142;BME280;42018;48.588;10.836;2023-02-23T12:47:58;96454.66;;;11.72;71.83
56142;BME280;42018;48.588;10.836;2023-02-23T12:50:54;96447.81;;;11.95;72.44
56142;BME280;42018;48.588;10.836;2023-02-23T12:53:41;96452.44;;;11.84;71.68
56142;BME280;42018;48.588;10.836;2023-02-23T13:02:40;96449.59;;;12.05;71.13
56142;BME280;42018;48.588;10.836;2023-02-23T13:05:30;96446.84;;;12.15;70.86
56142;BME280;42018;48.588;10.836;2023-02-23T13:17:31;96442.50;;;11.95;70.93
56142;BME280;42018;48.588;10.836;2023-02-23T13:31:28;96435.34;;;12.19;70.21
56142;BME280;42018;48.588;10.836;2023-02-23T13:34:25;96435.81;;;12.27;69.62
56142;BME280;42018;48.588;10.836;2023-02-23T13:37:12;96436.28;;;12.10;69.70
56142;BME280;42018;48.588;10.836;2023-02-23T13:49:15;96433.94;;;12.27;69.43
56142;BME280;42018;48.588;10.836;2023-02-23T13:52:14;96433.91;;;12.32;68.83
56142;BME280;42018;48.588;10.836;2023-02-23T13:55:00;96431.88;;;12.24;69.22
56142;BME280;42018;48.588;10.836;2023-02-23T13:57:49;96439.38;;;12.17;70.18
56142;BME280;42018;48.588;10.836;2023-02-23T14:00:34;96432.38;;;12.26;69.19
56142;BME280;42018;48.588;10.836;2023-02-23T14:03:24;96437.75;;;12.21;68.76
56142;BME280;42018;48.588;10.836;2023-02-23T14:06:11;96440.09;;;12.22;69.02
56142;BME280;42018;48.588;10.836;2023-02-23T14:08:59;96429.59;;;12.12;69.19
56142;BME280;42018;48.588;10.836;2023-02-23T14:11:50;96425.50;;;12.20;68.72
56142;BME280;42018;48.588;10.836;2023-02-23T14:14:38;96430.38;;;12.37;68.90
56142;BME280;42018;48.588;10.836;2023-02-23T14:20:19;96420.75;;;12.41;68.21
56142;BME280;42018;48.588;10.836;2023-02-23T14:26:15;96424.06;;;12.09;68.26
56142;BME280;42018;48.588;10.836;2023-02-23T14:34:58;96427.84;;;12.27;68.49
56142;BME280;42018;48.588;10.836;2023-02-23T14:37:44;96429.00;;;12.20;68.49
56142;BME280;42018;48.588;10.836;2023-02-23T14:40:40;96421.81;;;12.21;67.93
56142;BME280;42018;48.588;10.836;2023-02-23T14:46:18;96426.22;;;12.07;68.70
56142;BME280;42018;48.588;10.836;2023-02-23T14:49:06;96417.84;;;12.18;68.71
56142;BME280;42018;48.588;10.836;2023-02-23T14:51:56;96417.94;;;12.32;68.47
56142;BME280;42018;48.588;10.836;2023-02-23T14:54:43;96414.97;;;12.39;67.74
56142;BME280;42018;48.588;10.836;2023-02-23T14:57:29;96413.00;;;12.44;66.91
56142;BME280;42018;48.588;10.836;2023-02-23T15:06:29;96403.03;;;12.36;67.63
56142;BME280;42018;48.588;10.836;2023-02-23T15:09:16;96400.72;;;12.30;67.65
56142;BME280;42018;48.588;10.836;2023-02-23T15:12:10;96411.28;;;12.11;68.63
56142;BME280;42018;48.588;10.836;2023-02-23T15:15:00;96412.88;;;12.12;68.31
56142;BME280;42018;48.588;10.836;2023-02-23T15:17:47;96408.13;;;12.09;69.01
56142;BME280;42018;48.588;10.836;2023-02-23T15:20:33;96403.44;;;12.01;68.56
56142;BME280;42018;48.588;10.836;2023-02-23T15:23:18;96405.06;;;11.96;69.12
56142;BME280;42018;48.588;10.836;2023-02-23T15:31:54;96411.78;;;11.89;68.90
56142;BME280;42018;48.588;10.836;2023-02-23T15:34:39;96411.84;;;11.84;69.08
56142;BME280;42018;48.588;10.836;2023-02-23T15:38:07;96404.50;;;12.00;69.18
56142;BME280;42018;48.588;10.836;2023-02-23T15:40:33;96408.06;;;12.14;69.35
56142;BME280;42018;48.588;10.836;2023-02-23T15:43:18;96403.25;;;12.16;68.43
56142;BME280;42018;48.588;10.836;2023-02-23T15:46:04;96410.50;;;12.10;68.43
56142;BME280;42018;48.588;10.836;2023-02-23T15:48:49;96404.13;;;12.11;68.70
56142;BME280;42018;48.588;10.836;2023-02-23T15:51:43;96399.94;;;12.05;69.10
56142;BME280;42018;48.588;10.836;2023-02-23T15:57:19;96411.34;;;12.06;69.11
56142;BME280;42018;48.588;10.836;2023-02-23T16:00:11;96416.66;;;12.06;69.28
56142;BME280;42018;48.588;10.836;2023-02-23T16:03:00;96414.56;;;12.03;69.14
56142;BME280;42018;48.588;10.836;2023-02-23T16:05:54;96411.47;;;11.95;69.94
56142;BME280;42018;48.588;10.836;2023-02-23T16:08:46;96407.16;;;12.00;69.67
56142;BME280;42018;48.588;10.836;2023-02-23T16:11:39;96416.16;;;12.04;69.49
56142;BME280;42018;48.588;10.836;2023-02-23T16:14:24;96411.91;;;12.03;69.46
56142;BME280;42018;48.588;10.836;2023-02-23T16:22:55;96414.06;;;12.01;69.23
56142;BME280;42018;48.588;10.836;2023-02-23T16:25:42;96408.22;;;11.98;69.47
56142;BME280;42018;48.588;10.836;2023-02-23T16:28:28;96401.91;;;11.94;69.51
56142;BME280;42018;48.588;10.836;2023-02-23T16:31:20;96407.22;;;11.94;69.95
56142;BME280;42018;48.588;10.836;2023-02-23T16:37:15;96407.22;;;11.94;69.54
56142;BME280;42018;48.588;10.836;2023-02-23T16:40:01;96411.72;;;11.94;69.66
56142;BME280;42018;48.588;10.836;2023-02-23T16:42:47;96405.97;;;11.87;70.01
56142;BME280;42018;48.588;10.836;2023-02-23T16:45:33;96409.19;;;11.84;69.97
56142;BME280;42018;48.588;10.836;2023-02-23T16:48:19;96403.59;;;11.85;70.05
56142;BME280;42018;48.588;10.836;2023-02-23T16:54:27;96420.16;;;11.72;70.50
56142;BME280;42018;48.588;10.836;2023-02-23T16:57:26;96421.00;;;11.67;71.06
56142;BME280;42018;48.588;10.836;2023-02-23T17:00:13;96418.66;;;11.61;71.31
56142;BME280;42018;48.588;10.836;2023-02-23T17:03:02;96422.16;;;11.56;71.89
56142;BME280;42018;48.588;10.836;2023-02-23T17:05:50;96422.94;;;11.57;71.61
56142;BME280;42018;48.588;10.836;2023-02-23T17:08:36;96424.16;;;11.40;72.26